createdAt,value
2022-07-27T00:01:09.800Z,99014.47
2022-07-27T00:03:38.393Z,99022.00
2022-07-27T00:06:06.580Z,99022.09
2022-07-27T00:08:34.762Z,99020.75
2022-07-27T00:11:03.314Z,99026.69
2022-07-27T00:13:31.663Z,99020.63
2022-07-27T00:15:59.498Z,99011.66
2022-07-27T00:18:28.972Z,99019.34
2022-07-27T00:20:56.872Z,99024.63
2022-07-27T00:23:24.692Z,99016.63
2022-07-27T00:25:52.707Z,99023.94
2022-07-27T00:28:20.536Z,99031.44
2022-07-27T00:30:48.305Z,99031.63
2022-07-27T00:33:17.318Z,99036.22
2022-07-27T00:35:46.967Z,99044.06
2022-07-27T00:38:16.509Z,99039.25
2022-07-27T00:40:45.124Z,99039.78
2022-07-27T00:43:13.654Z,99047.34
2022-07-27T00:45:41.684Z,99043.63
2022-07-27T00:48:09.517Z,99043.28
2022-07-27T00:50:38.638Z,99048.81
2022-07-27T00:53:09.334Z,99049.19
2022-07-27T00:55:39.380Z,99056.06
2022-07-27T00:58:08.699Z,99049.34
2022-07-27T01:00:37.096Z,99051.28
2022-07-27T01:03:08.800Z,99053.56
2022-07-27T01:05:43.130Z,99057.31
2022-07-27T01:08:15.005Z,99057.41
2022-07-27T01:10:44.475Z,99045.41
2022-07-27T01:13:13.478Z,99053.22
2022-07-27T01:15:43.311Z,99042.59
2022-07-27T01:18:26.476Z,99040.22
2022-07-27T01:20:54.379Z,99037.41
2022-07-27T01:23:23.593Z,99046.00
2022-07-27T01:25:51.787Z,99035.47
2022-07-27T01:28:19.654Z,99043.06
2022-07-27T01:30:47.669Z,99029.72
2022-07-27T01:33:15.466Z,99033.09
2022-07-27T01:35:43.379Z,99027.66
2022-07-27T01:38:12.894Z,99023.44
2022-07-27T01:40:42.185Z,99028.22
2022-07-27T01:43:10.035Z,99028.34
2022-07-27T01:45:37.902Z,99024.81
2022-07-27T01:48:06.138Z,99015.44
2022-07-27T01:50:33.977Z,98999.88
2022-07-27T01:53:02.023Z,99001.19
2022-07-27T01:55:38.751Z,99007.19
2022-07-27T01:58:09.472Z,99003.06
2022-07-27T02:00:38.101Z,98998.88
2022-07-27T02:03:07.755Z,98990.00
2022-07-27T02:05:36.058Z,98977.38
2022-07-27T02:08:04.658Z,98992.19
2022-07-27T02:10:33.026Z,98995.94
2022-07-27T02:12:59.825Z,98992.50
2022-07-27T02:15:38.838Z,98989.63
2022-07-27T02:18:32.832Z,98985.00
2022-07-27T02:20:59.352Z,99000.81
2022-07-27T02:23:27.354Z,98986.03
2022-07-27T02:25:55.194Z,98994.22
2022-07-27T02:28:29.052Z,98992.47
2022-07-27T02:30:58.202Z,98986.88
2022-07-27T02:33:26.026Z,98982.31
2022-07-27T02:35:53.903Z,98978.41
2022-07-27T02:38:21.740Z,98992.25
2022-07-27T02:40:49.558Z,98984.19
2022-07-27T02:43:17.310Z,98985.81
2022-07-27T02:45:46.455Z,98983.16
2022-07-27T02:48:16.223Z,98990.38
2022-07-27T02:50:44.084Z,99000.16
2022-07-27T02:53:11.918Z,98999.09
2022-07-27T02:55:40.120Z,99004.47
2022-07-27T02:58:08.208Z,99015.16
2022-07-27T03:00:35.990Z,99010.00
2022-07-27T03:03:03.923Z,99022.09
2022-07-27T03:05:33.655Z,99025.31
2022-07-27T03:08:01.646Z,99028.72
2022-07-27T03:10:29.400Z,99033.59
2022-07-27T03:12:57.188Z,99014.72
2022-07-27T03:15:25.182Z,99015.41
2022-07-27T03:17:54.035Z,99007.34
2022-07-27T03:20:21.980Z,99000.28
2022-07-27T03:22:51.090Z,99009.50
2022-07-27T03:25:18.950Z,99011.88
2022-07-27T03:27:46.767Z,99012.53
2022-07-27T03:30:15.005Z,99014.47
2022-07-27T03:32:42.794Z,99015.53
2022-07-27T03:35:10.989Z,99017.09
2022-07-27T03:37:38.834Z,99017.25
2022-07-27T03:40:09.784Z,99017.97
2022-07-27T03:42:37.944Z,99019.25
2022-07-27T03:45:06.979Z,99027.94
2022-07-27T03:47:34.775Z,99023.03
2022-07-27T03:50:02.781Z,99016.59
2022-07-27T03:52:30.690Z,99021.97
2022-07-27T03:54:58.515Z,99026.09
2022-07-27T03:57:27.604Z,99031.91
2022-07-27T03:59:55.417Z,99025.34
2022-07-27T04:02:23.292Z,99022.97
2022-07-27T04:04:51.384Z,99029.03
2022-07-27T04:07:19.145Z,99024.25
2022-07-27T04:09:47.244Z,99022.94
2022-07-27T04:12:17.296Z,99022.66
2022-07-27T04:14:49.140Z,99027.66
2022-07-27T04:17:56.433Z,99038.22
2022-07-27T04:20:05.900Z,99039.66
2022-07-27T04:22:33.732Z,99035.66
2022-07-27T04:25:01.768Z,99046.47
2022-07-27T04:27:29.575Z,99046.97
2022-07-27T04:29:58.762Z,99045.31
2022-07-27T04:32:26.533Z,99051.63
2022-07-27T04:34:54.337Z,99042.22
2022-07-27T04:37:22.119Z,99043.00
2022-07-27T04:39:49.941Z,99040.97
2022-07-27T04:42:18.300Z,99056.41
2022-07-27T04:44:46.110Z,99043.28
2022-07-27T04:47:15.288Z,99045.28
2022-07-27T04:49:43.049Z,99047.16
2022-07-27T04:52:10.846Z,99053.66
2022-07-27T04:54:38.600Z,99056.91
2022-07-27T04:57:06.678Z,99053.66
2022-07-27T04:59:34.467Z,99061.72
2022-07-27T05:02:02.255Z,99062.78
2022-07-27T05:04:31.544Z,99058.81
2022-07-27T05:06:59.462Z,99063.72
2022-07-27T05:09:27.337Z,99063.09
2022-07-27T05:11:55.126Z,99073.88
2022-07-27T05:14:23.405Z,99065.81
2022-07-27T05:16:51.698Z,99070.72
2022-07-27T05:19:19.539Z,99072.19
2022-07-27T05:21:48.681Z,99073.34
2022-07-27T05:24:16.427Z,99073.50
2022-07-27T05:26:45.830Z,99075.84
2022-07-27T05:29:14.217Z,99084.63
2022-07-27T05:31:42.398Z,99084.41
2022-07-27T05:34:10.275Z,99086.50
2022-07-27T05:36:38.098Z,99079.25
2022-07-27T05:39:10.423Z,99083.06
2022-07-27T05:41:41.466Z,99084.75
2022-07-27T05:44:09.383Z,99088.16
2022-07-27T05:46:37.186Z,99093.22
2022-07-27T05:49:06.150Z,99094.41
2022-07-27T05:51:33.982Z,99087.97
2022-07-27T05:54:01.936Z,99099.56
2022-07-27T05:56:31.426Z,99100.16
2022-07-27T05:59:01.619Z,99104.38
2022-07-27T06:01:32.920Z,99109.53
2022-07-27T06:04:01.063Z,99114.50
2022-07-27T06:06:46.752Z,99121.34
2022-07-27T06:09:15.197Z,99119.19
2022-07-27T06:11:44.727Z,99121.50
2022-07-27T06:14:12.595Z,99115.88
2022-07-27T06:16:40.531Z,99120.88
2022-07-27T06:19:08.643Z,99119.13
2022-07-27T06:21:36.712Z,99119.50
2022-07-27T06:24:05.169Z,99111.59
2022-07-27T06:26:32.945Z,99114.81
2022-07-27T06:29:02.106Z,99105.88
2022-07-27T06:31:35.548Z,99121.78
2022-07-27T06:34:03.915Z,99120.56
2022-07-27T06:36:36.052Z,99117.66
2022-07-27T06:39:03.906Z,99125.44
2022-07-27T06:41:34.138Z,99120.28
2022-07-27T06:44:03.369Z,99120.28
2022-07-27T06:46:31.228Z,99124.47
2022-07-27T06:48:59.106Z,99121.06
2022-07-27T06:51:26.941Z,99127.66
2022-07-27T06:53:54.876Z,99126.47
2022-07-27T06:56:23.028Z,99128.13
2022-07-27T06:58:51.556Z,99124.56
2022-07-27T07:01:20.743Z,99115.00
2022-07-27T07:03:48.631Z,99116.66
2022-07-27T07:06:16.618Z,99117.00
2022-07-27T07:08:44.488Z,99118.31
2022-07-27T07:11:14.019Z,99111.59
2022-07-27T07:13:44.955Z,99124.34
2022-07-27T07:16:13.258Z,99121.63
2022-07-27T07:18:42.446Z,99120.91
2022-07-27T07:21:10.257Z,99118.22
2022-07-27T07:23:38.110Z,99129.94
2022-07-27T07:26:06.245Z,99137.28
2022-07-27T07:28:34.160Z,99136.25
2022-07-27T07:31:02.032Z,99136.88
2022-07-27T07:33:29.888Z,99137.25
2022-07-27T07:36:13.854Z,99144.16
2022-07-27T07:38:43.086Z,99145.56
2022-07-27T07:41:10.954Z,99151.59
2022-07-27T07:43:39.768Z,99148.47
2022-07-27T07:46:09.553Z,99145.84
2022-07-27T07:48:39.485Z,99150.16
2022-07-27T07:51:09.102Z,99149.03
2022-07-27T07:53:41.447Z,99144.75
2022-07-27T07:56:09.731Z,99134.94
2022-07-27T07:58:37.630Z,99149.13
2022-07-27T08:01:05.569Z,99152.03
2022-07-27T08:03:33.487Z,99149.44
2022-07-27T08:06:02.698Z,99148.69
2022-07-27T08:08:33.056Z,99131.09
2022-07-27T08:11:00.959Z,99146.00
2022-07-27T08:13:28.767Z,99148.53
2022-07-27T08:15:56.836Z,99146.34
2022-07-27T08:18:24.623Z,99141.09
2022-07-27T08:20:52.405Z,99138.63
2022-07-27T08:23:20.380Z,99139.69
2022-07-27T08:25:49.636Z,99145.13
2022-07-27T08:28:17.506Z,99146.41
2022-07-27T08:30:46.610Z,99145.38
2022-07-27T08:33:14.412Z,99142.00
2022-07-27T08:35:42.567Z,99144.84
2022-07-27T08:38:10.777Z,99147.69
2022-07-27T08:40:42.949Z,99151.03
2022-07-27T08:43:21.897Z,99142.69
2022-07-27T08:45:57.237Z,99151.25
2022-07-27T08:48:25.719Z,99141.22
2022-07-27T08:50:54.079Z,99143.50
2022-07-27T08:53:22.766Z,99142.94
2022-07-27T08:55:51.088Z,99139.75
2022-07-27T08:58:20.649Z,99145.56
2022-07-27T09:00:50.017Z,99138.47
2022-07-27T09:03:21.095Z,99142.72
2022-07-27T09:05:52.192Z,99145.75
2022-07-27T09:08:24.145Z,99150.38
2022-07-27T09:10:54.443Z,99135.13
2022-07-27T09:13:26.072Z,99135.44
2022-07-27T09:16:16.956Z,99129.66
2022-07-27T09:18:43.824Z,99130.66
2022-07-27T09:21:16.948Z,99126.22
2022-07-27T09:23:48.010Z,99122.50
2022-07-27T09:26:31.685Z,99124.28
2022-07-27T09:29:03.719Z,99122.34
2022-07-27T09:31:32.483Z,99110.59
2022-07-27T09:34:01.837Z,99122.88
2022-07-27T09:36:31.406Z,99121.22
2022-07-27T09:39:03.147Z,99121.88
2022-07-27T09:41:43.023Z,99118.78
2022-07-27T09:44:31.297Z,99120.19
2022-07-27T09:47:00.150Z,99120.78
2022-07-27T09:49:32.814Z,99120.66
2022-07-27T09:52:02.838Z,99129.69
2022-07-27T09:54:44.165Z,99129.13
2022-07-27T09:57:12.198Z,99131.22
2022-07-27T09:59:41.509Z,99130.34
2022-07-27T10:02:09.451Z,99131.34
2022-07-27T10:04:37.605Z,99133.25
2022-07-27T10:07:09.488Z,99127.34
2022-07-27T10:09:41.540Z,99126.81
2022-07-27T10:12:10.169Z,99135.91
2022-07-27T10:14:37.919Z,99137.16
2022-07-27T10:17:10.689Z,99131.50
2022-07-27T10:19:46.725Z,99129.97
2022-07-27T10:22:14.814Z,99139.47
2022-07-27T10:24:42.838Z,99140.69
2022-07-27T10:27:21.525Z,99137.97
2022-07-27T10:29:50.970Z,99140.59
2022-07-27T10:32:26.440Z,99142.03
2022-07-27T10:34:54.790Z,99145.75
2022-07-27T10:37:26.933Z,99148.66
2022-07-27T10:40:11.395Z,99145.41
2022-07-27T10:42:39.651Z,99142.44
2022-07-27T10:45:09.607Z,99144.53
2022-07-27T10:47:42.044Z,99143.47
2022-07-27T10:50:33.122Z,99150.03
2022-07-27T10:53:11.211Z,99146.69
2022-07-27T10:55:46.824Z,99146.78
2022-07-27T10:58:52.297Z,99151.13
2022-07-27T11:01:21.678Z,99152.91
2022-07-27T11:03:54.381Z,99144.31
2022-07-27T11:06:41.958Z,99132.63
2022-07-27T11:12:02.011Z,99146.47
2022-07-27T11:14:31.854Z,99137.88
2022-07-27T11:17:24.320Z,99136.00
2022-07-27T11:19:54.555Z,99139.06
2022-07-27T11:25:21.692Z,99129.59
2022-07-27T11:27:50.225Z,99128.59
2022-07-27T11:30:27.184Z,99123.94
2022-07-27T11:32:56.670Z,99132.84
2022-07-27T11:35:25.896Z,99128.91
2022-07-27T11:38:01.848Z,99126.63
2022-07-27T11:43:34.691Z,99122.06
2022-07-27T11:46:15.787Z,99115.78
2022-07-27T11:49:06.742Z,99129.63
2022-07-27T11:51:37.811Z,99130.28
2022-07-27T11:54:08.361Z,99125.28
2022-07-27T11:56:37.897Z,99122.06
2022-07-27T11:59:11.575Z,99117.44
2022-07-27T12:01:42.272Z,99118.03
2022-07-27T12:04:19.485Z,99110.94
2022-07-27T12:06:55.834Z,99113.47
2022-07-27T12:09:24.672Z,99118.13
2022-07-27T12:11:55.378Z,99111.06
2022-07-27T12:14:34.536Z,99113.38
2022-07-27T12:17:14.149Z,99102.09
2022-07-27T12:19:42.880Z,99098.34
2022-07-27T12:22:12.023Z,99106.25
2022-07-27T12:24:42.398Z,99097.78
2022-07-27T12:27:14.810Z,99099.47
2022-07-27T12:30:00.456Z,99108.94
2022-07-27T12:32:29.766Z,99096.28
2022-07-27T12:34:57.682Z,99093.22
2022-07-27T12:37:32.563Z,99106.53
2022-07-27T12:40:01.299Z,99098.00
2022-07-27T12:42:37.491Z,99097.19
2022-07-27T12:45:18.238Z,99099.34
2022-07-27T12:47:46.917Z,99092.91
2022-07-27T12:50:17.042Z,99096.91
2022-07-27T12:52:49.029Z,99103.09
2022-07-27T12:55:17.700Z,99106.25
2022-07-27T12:57:55.676Z,99098.38
2022-07-27T13:00:33.511Z,99102.25
2022-07-27T13:03:03.456Z,99103.22
2022-07-27T13:05:31.578Z,99089.50
2022-07-27T13:08:01.465Z,99094.06
2022-07-27T13:10:29.601Z,99098.13
2022-07-27T13:12:58.216Z,99098.28
2022-07-27T13:15:26.308Z,99100.00
2022-07-27T13:17:54.339Z,99096.75
2022-07-27T13:20:22.171Z,99090.09
2022-07-27T13:22:49.986Z,99091.53
2022-07-27T13:25:19.620Z,99087.84
2022-07-27T13:27:49.459Z,99091.53
2022-07-27T13:30:19.008Z,99097.91
2022-07-27T13:32:47.982Z,99096.56
2022-07-27T13:35:17.570Z,99098.69
2022-07-27T13:37:46.292Z,99102.31
2022-07-27T13:40:15.193Z,99102.31
2022-07-27T13:42:44.648Z,99091.31
2022-07-27T13:45:12.587Z,99088.31
2022-07-27T13:47:41.348Z,99083.72
2022-07-27T13:50:17.914Z,99088.28
2022-07-27T13:52:46.912Z,99080.78
2022-07-27T13:55:15.855Z,99073.16
2022-07-27T13:57:45.725Z,99079.69
2022-07-27T14:00:14.737Z,99080.78
2022-07-27T14:02:43.094Z,99080.09
2022-07-27T14:05:13.123Z,99074.28
2022-07-27T14:07:43.138Z,99077.44
2022-07-27T14:10:30.268Z,99085.81
2022-07-27T14:13:07.933Z,99074.16
2022-07-27T14:15:50.420Z,99073.13
2022-07-27T14:18:29.219Z,99068.78
2022-07-27T14:20:59.076Z,99066.44
2022-07-27T14:23:28.083Z,99068.63
2022-07-27T14:25:58.359Z,99061.97
2022-07-27T14:28:29.123Z,99064.38
2022-07-27T14:30:57.095Z,99058.72
2022-07-27T14:33:26.285Z,99058.34
2022-07-27T14:36:02.022Z,99061.59
2022-07-27T14:38:30.890Z,99067.13
2022-07-27T14:41:00.777Z,99052.31
2022-07-27T14:43:31.151Z,99052.03
2022-07-27T14:45:59.379Z,99050.03
2022-07-27T14:48:48.540Z,99051.84
2022-07-27T14:51:15.217Z,99038.22
2022-07-27T14:53:43.036Z,99048.59
2022-07-27T14:56:10.775Z,99054.91
2022-07-27T14:58:39.900Z,99047.47
2022-07-27T15:01:07.759Z,99043.00
2022-07-27T15:03:35.881Z,99048.81
2022-07-27T15:06:03.879Z,99046.16
2022-07-27T15:08:31.714Z,99037.72
2022-07-27T15:10:59.691Z,99036.31
2022-07-27T15:13:27.483Z,99040.16
2022-07-27T15:15:58.100Z,99036.75
2022-07-27T15:18:26.052Z,99032.06
2022-07-27T15:20:53.854Z,99035.69
2022-07-27T15:23:22.319Z,99035.56
2022-07-27T15:25:50.145Z,99035.69
2022-07-27T15:28:17.964Z,99042.69
2022-07-27T15:30:45.839Z,99042.16
2022-07-27T15:33:15.067Z,99029.81
2022-07-27T15:35:43.092Z,99028.28
2022-07-27T15:38:10.848Z,99035.13
2022-07-27T15:40:38.880Z,99032.47
2022-07-27T15:43:10.625Z,99026.09
2022-07-27T15:45:39.469Z,99039.34
2022-07-27T15:48:09.372Z,99033.19
2022-07-27T15:50:41.039Z,99033.09
2022-07-27T15:53:09.136Z,99035.75
2022-07-27T15:55:39.467Z,99027.97
2022-07-27T15:58:07.954Z,99034.41
2022-07-27T16:00:40.548Z,99047.94
2022-07-27T16:03:10.013Z,99039.66
2022-07-27T16:05:39.665Z,99038.06
2022-07-27T16:08:09.763Z,99029.94
2022-07-27T16:10:37.626Z,99034.66
2022-07-27T16:13:05.991Z,99030.72
2022-07-27T16:15:52.256Z,99027.41
2022-07-27T16:18:20.155Z,99032.63
2022-07-27T16:20:49.354Z,99031.38
2022-07-27T16:23:19.112Z,99020.69
2022-07-27T16:26:07.464Z,99024.28
2022-07-27T16:28:38.801Z,99023.16
2022-07-27T16:31:08.102Z,99016.63
2022-07-27T16:33:36.099Z,99016.38
2022-07-27T16:36:08.352Z,99013.38
2022-07-27T16:38:37.702Z,99021.75
2022-07-27T16:41:10.708Z,99021.13
2022-07-27T16:43:39.630Z,99019.28
2022-07-27T16:46:09.997Z,99013.69
2022-07-27T16:48:42.628Z,99013.31
2022-07-27T16:51:13.694Z,99013.13
2022-07-27T16:53:43.737Z,99014.06
2022-07-27T16:56:12.590Z,99002.19
2022-07-27T16:58:40.985Z,99008.09
2022-07-27T17:01:09.631Z,99001.00
2022-07-27T17:03:49.785Z,98995.69
2022-07-27T17:06:20.877Z,99001.13
2022-07-27T17:08:49.131Z,99001.16
2022-07-27T17:11:21.547Z,99007.31
2022-07-27T17:13:51.176Z,99013.19
2022-07-27T17:16:27.136Z,99008.63
2022-07-27T17:18:55.154Z,99008.31
2022-07-27T17:21:24.418Z,99009.34
2022-07-27T17:23:52.350Z,99009.41
2022-07-27T17:26:20.148Z,99012.16
2022-07-27T17:28:52.069Z,99000.81
2022-07-27T17:31:21.141Z,99010.88
2022-07-27T17:33:49.906Z,99024.97
2022-07-27T17:36:17.736Z,99018.41
2022-07-27T17:38:48.533Z,99019.63
2022-07-27T17:41:23.811Z,99017.75
2022-07-27T17:43:52.813Z,99008.75
2022-07-27T17:46:21.071Z,99009.81
2022-07-27T17:48:49.007Z,99012.69
2022-07-27T17:51:16.898Z,99014.25
2022-07-27T17:53:46.578Z,99012.84
2022-07-27T17:56:14.332Z,99017.06
2022-07-27T17:58:42.911Z,99010.16
2022-07-27T18:01:10.769Z,99023.53
2022-07-27T18:03:38.591Z,99016.38
2022-07-27T18:06:06.943Z,99021.06
2022-07-27T18:08:34.923Z,99015.59
2022-07-27T18:11:04.577Z,99017.72
2022-07-27T18:13:39.504Z,99016.63
2022-07-27T18:16:11.483Z,99018.13
2022-07-27T18:18:41.275Z,99024.69
2022-07-27T18:21:10.573Z,99015.44
2022-07-27T18:23:38.776Z,99018.03
2022-07-27T18:26:09.914Z,99024.03
2022-07-27T18:28:40.063Z,99021.47
2022-07-27T18:31:09.698Z,99028.41
2022-07-27T18:33:37.912Z,99032.84
2022-07-27T18:36:06.463Z,99035.00
2022-07-27T18:38:34.430Z,99034.47
2022-07-27T18:41:02.905Z,99039.13
2022-07-27T18:43:32.167Z,99047.16
2022-07-27T18:45:59.991Z,99038.34
2022-07-27T18:48:28.805Z,99047.66
2022-07-27T18:50:56.943Z,99050.50
2022-07-27T18:53:25.009Z,99052.09
2022-07-27T18:55:56.185Z,99050.25
2022-07-27T18:58:25.802Z,99054.66
2022-07-27T19:00:55.640Z,99073.78
2022-07-27T19:03:24.604Z,99063.69
2022-07-27T19:05:55.716Z,99071.16
2022-07-27T19:08:24.145Z,99068.72
2022-07-27T19:10:52.545Z,99072.09
2022-07-27T19:13:21.165Z,99069.44
2022-07-27T19:15:48.999Z,99076.31
2022-07-27T19:18:18.263Z,99086.31
2022-07-27T19:20:46.143Z,99094.03
2022-07-27T19:23:13.905Z,99099.22
2022-07-27T19:25:42.045Z,99097.03
2022-07-27T19:28:09.826Z,99107.81
2022-07-27T19:30:39.283Z,99106.41
2022-07-27T19:33:07.144Z,99114.75
2022-07-27T19:35:36.306Z,99116.03
2022-07-27T19:38:04.175Z,99119.03
2022-07-27T19:40:47.482Z,99125.75
2022-07-27T19:43:15.894Z,99107.78
2022-07-27T19:45:44.340Z,99111.44
2022-07-27T19:48:12.427Z,99118.16
2022-07-27T19:50:42.318Z,99114.72
2022-07-27T19:53:10.076Z,99119.19
2022-07-27T19:55:37.918Z,99117.41
2022-07-27T19:58:05.715Z,99115.94
2022-07-27T20:00:33.536Z,99111.97
2022-07-27T20:03:01.408Z,99114.47
2022-07-27T20:05:29.539Z,99115.66
2022-07-27T20:07:58.786Z,99120.00
2022-07-27T20:10:26.968Z,99123.13
2022-07-27T20:12:54.740Z,99129.94
2022-07-27T20:15:22.775Z,99136.50
2022-07-27T20:17:50.941Z,99135.41
2022-07-27T20:20:18.995Z,99134.38
2022-07-27T20:22:46.771Z,99137.94
2022-07-27T20:25:16.179Z,99133.50
2022-07-27T20:27:44.216Z,99138.81
2022-07-27T20:30:14.519Z,99136.88
2022-07-27T20:32:42.488Z,99137.03
2022-07-27T20:35:10.414Z,99139.09
2022-07-27T20:37:38.720Z,99137.47
2022-07-27T20:40:09.626Z,99138.44
2022-07-27T20:42:40.288Z,99138.53
2022-07-27T20:45:12.739Z,99146.66
2022-07-27T20:47:40.709Z,99139.03
2022-07-27T20:50:09.713Z,99147.22
2022-07-27T20:52:37.810Z,99146.72
2022-07-27T20:55:06.728Z,99148.75
2022-07-27T20:57:34.754Z,99150.16
2022-07-27T21:00:06.514Z,99147.28
2022-07-27T21:02:34.577Z,99146.81
2022-07-27T21:05:02.699Z,99151.69
2022-07-27T21:07:30.494Z,99152.47
2022-07-27T21:09:58.263Z,99149.13
2022-07-27T21:12:26.029Z,99154.44
2022-07-27T21:14:54.221Z,99156.19
2022-07-27T21:17:23.479Z,99154.66
2022-07-27T21:19:51.240Z,99168.00
2022-07-27T21:22:20.567Z,99170.34
2022-07-27T21:24:49.557Z,99160.75
2022-07-27T21:27:20.811Z,99162.22
2022-07-27T21:29:49.354Z,99165.22
2022-07-27T21:32:17.415Z,99169.81
2022-07-27T21:34:46.543Z,99167.47
2022-07-27T21:37:14.372Z,99161.75
2022-07-27T21:39:42.208Z,99164.09
2022-07-27T21:42:09.954Z,99163.28
2022-07-27T21:44:37.693Z,99162.66
2022-07-27T21:47:11.395Z,99158.91
2022-07-27T21:49:41.048Z,99163.41
2022-07-27T21:52:11.179Z,99159.31
2022-07-27T21:54:39.205Z,99169.34
2022-07-27T21:57:06.983Z,99164.34
2022-07-27T21:59:36.212Z,99169.56
2022-07-27T22:02:05.008Z,99168.34
2022-07-27T22:04:32.954Z,99173.25
2022-07-27T22:07:00.849Z,99165.44
2022-07-27T22:09:30.208Z,99164.41
2022-07-27T22:11:58.059Z,99164.75
2022-07-27T22:14:25.910Z,99158.00
2022-07-27T22:16:53.936Z,99157.06
2022-07-27T22:19:21.863Z,99165.56
2022-07-27T22:21:49.818Z,99160.88
2022-07-27T22:24:17.769Z,99171.53
2022-07-27T22:26:47.226Z,99175.94
2022-07-27T22:29:15.035Z,99176.59
2022-07-27T22:31:42.904Z,99175.72
2022-07-27T22:34:11.021Z,99176.38
2022-07-27T22:36:39.232Z,99185.56
2022-07-27T22:39:07.310Z,99176.47
2022-07-27T22:41:35.148Z,99179.75
2022-07-27T22:44:04.304Z,99184.28
2022-07-27T22:46:32.162Z,99179.44
2022-07-27T22:49:00.230Z,99187.31
2022-07-27T22:51:49.688Z,99181.06
2022-07-27T22:54:16.296Z,99185.00
2022-07-27T22:56:44.512Z,99185.91
2022-07-27T22:59:13.691Z,99185.78
2022-07-27T23:01:46.836Z,99192.97
2022-07-27T23:04:16.726Z,99191.13
2022-07-27T23:06:45.198Z,99195.66
2022-07-27T23:09:13.341Z,99193.94
2022-07-27T23:11:42.102Z,99189.38
2022-07-27T23:14:10.011Z,99183.91
2022-07-27T23:16:39.573Z,99194.41
2022-07-27T23:19:07.472Z,99190.50
2022-07-27T23:21:35.522Z,99190.34
2022-07-27T23:24:05.517Z,99194.41
2022-07-27T23:26:33.599Z,99186.88
2022-07-27T23:29:01.882Z,99186.72
2022-07-27T23:31:29.751Z,99182.66
2022-07-27T23:33:58.935Z,99185.25
2022-07-27T23:36:26.711Z,99189.06
2022-07-27T23:38:54.500Z,99185.25
2022-07-27T23:41:22.539Z,99188.31
2022-07-27T23:43:50.356Z,99188.25
2022-07-27T23:46:18.252Z,99191.53
2022-07-27T23:48:46.246Z,99178.06
2022-07-27T23:51:18.708Z,99184.75
2022-07-27T23:53:47.588Z,99181.56
2022-07-27T23:56:15.911Z,99175.81
2022-07-27T23:58:43.747Z,99180.50
